sensor_id;sensor_type;location;lat;lon;timestamp;temperature;humidity
20288;DHT22;10303;51.960;8.372;2023-08-30T00:00:59;16.90;99.90
20288;DHT22;10303;51.960;8.372;2023-08-30T00:03:25;16.90;99.90
20288;DHT22;10303;51.960;8.372;2023-08-30T00:05:51;16.80;99.90
20288;DHT22;10303;51.960;8.372;2023-08-30T00:08:17;16.80;99.90
20288;DHT22;10303;51.960;8.372;2023-08-30T00:10:45;16.80;99.90
20288;DHT22;10303;51.960;8.372;2023-08-30T00:13:11;16.80;99.90
20288;DHT22;10303;51.960;8.372;2023-08-30T00:15:38;16.80;99.90
20288;DHT22;10303;51.960;8.372;2023-08-30T00:18:04;16.80;99.90
20288;DHT22;10303;51.960;8.372;2023-08-30T00:20:30;16.80;99.90
20288;DHT22;10303;51.960;8.372;2023-08-30T00:22:56;16.80;99.90
20288;DHT22;10303;51.960;8.372;2023-08-30T00:25:22;16.80;99.90
20288;DHT22;10303;51.960;8.372;2023-08-30T00:27:48;16.80;99.90
20288;DHT22;10303;51.960;8.372;2023-08-30T00:30:14;16.80;99.90
20288;DHT22;10303;51.960;8.372;2023-08-30T00:32:40;16.80;99.90
20288;DHT22;10303;51.960;8.372;2023-08-30T00:35:06;16.80;99.90
20288;DHT22;10303;51.960;8.372;2023-08-30T00:37:33;16.80;99.90
20288;DHT22;10303;51.960;8.372;2023-08-30T00:39:58;16.80;99.90
20288;DHT22;10303;51.960;8.372;2023-08-30T00:42:26;16.80;99.90
20288;DHT22;10303;51.960;8.372;2023-08-30T00:44:53;16.80;99.90
20288;DHT22;10303;51.960;8.372;2023-08-30T00:47:19;16.80;99.90
20288;DHT22;10303;51.960;8.372;2023-08-30T00:49:46;16.80;99.90
20288;DHT22;10303;51.960;8.372;2023-08-30T00:52:12;16.80;99.90
20288;DHT22;10303;51.960;8.372;2023-08-30T00:54:39;16.80;99.90
20288;DHT22;10303;51.960;8.372;2023-08-30T00:57:06;16.80;99.90
20288;DHT22;10303;51.960;8.372;2023-08-30T00:59:33;16.80;99.90
20288;DHT22;10303;51.960;8.372;2023-08-30T01:02:00;16.90;99.90
20288;DHT22;10303;51.960;8.372;2023-08-30T01:04:29;16.90;99.90
20288;DHT22;10303;51.960;8.372;2023-08-30T01:06:55;16.90;99.90
20288;DHT22;10303;51.960;8.372;2023-08-30T01:09:22;16.90;99.90
20288;DHT22;10303;51.960;8.372;2023-08-30T01:11:57;16.90;99.90
20288;DHT22;10303;51.960;8.372;2023-08-30T01:14:49;16.90;99.90
20288;DHT22;10303;51.960;8.372;2023-08-30T01:17:20;16.90;99.90
20288;DHT22;10303;51.960;8.372;2023-08-30T01:19:53;16.90;99.90
20288;DHT22;10303;51.960;8.372;2023-08-30T01:27:42;17.00;99.90
20288;DHT22;10303;51.960;8.372;2023-08-30T01:30:13;17.00;99.90
20288;DHT22;10303;51.960;8.372;2023-08-30T01:32:41;17.00;99.90
20288;DHT22;10303;51.960;8.372;2023-08-30T01:35:09;17.00;99.90
20288;DHT22;10303;51.960;8.372;2023-08-30T01:37:36;17.00;99.90
20288;DHT22;10303;51.960;8.372;2023-08-30T01:40:07;17.00;99.90
20288;DHT22;10303;51.960;8.372;2023-08-30T01:42:35;17.00;99.90
20288;DHT22;10303;51.960;8.372;2023-08-30T01:45:03;17.10;99.90
20288;DHT22;10303;51.960;8.372;2023-08-30T01:47:30;17.00;99.90
20288;DHT22;10303;51.960;8.372;2023-08-30T01:49:57;17.10;99.90
20288;DHT22;10303;51.960;8.372;2023-08-30T01:52:24;17.10;99.90
20288;DHT22;10303;51.960;8.372;2023-08-30T01:54:52;17.10;99.90
20288;DHT22;10303;51.960;8.372;2023-08-30T01:57:21;17.20;99.90
20288;DHT22;10303;51.960;8.372;2023-08-30T01:59:47;17.10;99.90
20288;DHT22;10303;51.960;8.372;2023-08-30T02:02:13;17.10;99.90
20288;DHT22;10303;51.960;8.372;2023-08-30T02:04:39;17.10;99.90
20288;DHT22;10303;51.960;8.372;2023-08-30T02:07:13;17.10;99.90
20288;DHT22;10303;51.960;8.372;2023-08-30T02:10:12;17.20;99.90
20288;DHT22;10303;51.960;8.372;2023-08-30T02:12:49;17.20;99.90
20288;DHT22;10303;51.960;8.372;2023-08-30T02:15:18;17.20;99.90
20288;DHT22;10303;51.960;8.372;2023-08-30T02:17:45;17.20;99.90
20288;DHT22;10303;51.960;8.372;2023-08-30T02:20:13;17.20;99.90
20288;DHT22;10303;51.960;8.372;2023-08-30T02:22:40;17.20;99.90
20288;DHT22;10303;51.960;8.372;2023-08-30T02:25:06;17.20;99.90
20288;DHT22;10303;51.960;8.372;2023-08-30T02:27:34;17.20;99.90
20288;DHT22;10303;51.960;8.372;2023-08-30T02:30:03;17.20;99.90
20288;DHT22;10303;51.960;8.372;2023-08-30T02:32:29;17.20;99.90
20288;DHT22;10303;51.960;8.372;2023-08-30T02:34:56;17.20;99.90
20288;DHT22;10303;51.960;8.372;2023-08-30T02:37:22;17.20;99.90
20288;DHT22;10303;51.960;8.372;2023-08-30T02:39:50;17.20;99.90
20288;DHT22;10303;51.960;8.372;2023-08-30T02:42:16;17.20;99.90
20288;DHT22;10303;51.960;8.372;2023-08-30T02:44:42;17.20;99.90
20288;DHT22;10303;51.960;8.372;2023-08-30T02:47:08;17.20;99.90
20288;DHT22;10303;51.960;8.372;2023-08-30T02:49:34;17.20;99.90
20288;DHT22;10303;51.960;8.372;2023-08-30T02:52:01;17.20;99.90
20288;DHT22;10303;51.960;8.372;2023-08-30T02:54:28;17.10;99.90
20288;DHT22;10303;51.960;8.372;2023-08-30T02:56:54;17.10;99.90
20288;DHT22;10303;51.960;8.372;2023-08-30T02:59:20;17.10;99.90
20288;DHT22;10303;51.960;8.372;2023-08-30T03:01:46;17.10;99.90
20288;DHT22;10303;51.960;8.372;2023-08-30T03:04:14;17.00;99.90
20288;DHT22;10303;51.960;8.372;2023-08-30T03:06:40;17.00;99.90
20288;DHT22;10303;51.960;8.372;2023-08-30T03:09:07;17.00;99.90
20288;DHT22;10303;51.960;8.372;2023-08-30T03:11:35;17.00;99.90
20288;DHT22;10303;51.960;8.372;2023-08-30T03:14:01;16.90;99.90
20288;DHT22;10303;51.960;8.372;2023-08-30T03:16:28;16.90;99.90
20288;DHT22;10303;51.960;8.372;2023-08-30T03:18:55;16.90;99.90
20288;DHT22;10303;51.960;8.372;2023-08-30T03:21:21;16.90;99.90
20288;DHT22;10303;51.960;8.372;2023-08-30T03:23:47;16.80;99.90
20288;DHT22;10303;51.960;8.372;2023-08-30T03:26:15;16.80;99.90
20288;DHT22;10303;51.960;8.372;2023-08-30T03:28:43;16.80;99.90
20288;DHT22;10303;51.960;8.372;2023-08-30T03:31:17;16.80;99.90
20288;DHT22;10303;51.960;8.372;2023-08-30T03:33:47;16.70;99.90
20288;DHT22;10303;51.960;8.372;2023-08-30T03:36:18;16.70;99.90
20288;DHT22;10303;51.960;8.372;2023-08-30T03:38:44;16.60;99.90
20288;DHT22;10303;51.960;8.372;2023-08-30T03:41:11;16.60;99.90
20288;DHT22;10303;51.960;8.372;2023-08-30T03:43:38;16.50;99.90
20288;DHT22;10303;51.960;8.372;2023-08-30T03:46:05;16.50;99.90
20288;DHT22;10303;51.960;8.372;2023-08-30T03:48:32;16.50;99.90
20288;DHT22;10303;51.960;8.372;2023-08-30T03:50:58;16.40;99.90
20288;DHT22;10303;51.960;8.372;2023-08-30T03:53:25;16.40;99.90
20288;DHT22;10303;51.960;8.372;2023-08-30T03:55:52;16.40;99.90
20288;DHT22;10303;51.960;8.372;2023-08-30T03:58:19;16.40;99.90
20288;DHT22;10303;51.960;8.372;2023-08-30T04:00:45;16.30;99.90
20288;DHT22;10303;51.960;8.372;2023-08-30T04:03:13;16.30;99.90
20288;DHT22;10303;51.960;8.372;2023-08-30T04:05:40;16.30;99.90
20288;DHT22;10303;51.960;8.372;2023-08-30T04:08:07;16.30;99.90
20288;DHT22;10303;51.960;8.372;2023-08-30T04:10:41;16.30;99.90
20288;DHT22;10303;51.960;8.372;2023-08-30T04:13:09;16.20;99.90
20288;DHT22;10303;51.960;8.372;2023-08-30T04:15:36;16.20;99.90
20288;DHT22;10303;51.960;8.372;2023-08-30T04:18:03;16.20;99.90
20288;DHT22;10303;51.960;8.372;2023-08-30T04:20:31;16.20;99.90
20288;DHT22;10303;51.960;8.372;2023-08-30T04:22:58;16.20;99.90
20288;DHT22;10303;51.960;8.372;2023-08-30T04:25:28;16.10;99.90
20288;DHT22;10303;51.960;8.372;2023-08-30T04:27:57;16.10;99.90
20288;DHT22;10303;51.960;8.372;2023-08-30T04:30:23;16.10;99.90
20288;DHT22;10303;51.960;8.372;2023-08-30T04:32:51;16.10;99.90
20288;DHT22;10303;51.960;8.372;2023-08-30T04:35:18;16.00;99.90
20288;DHT22;10303;51.960;8.372;2023-08-30T04:37:44;16.00;99.90
20288;DHT22;10303;51.960;8.372;2023-08-30T04:40:10;16.00;99.90
20288;DHT22;10303;51.960;8.372;2023-08-30T04:42:38;15.90;99.90
20288;DHT22;10303;51.960;8.372;2023-08-30T04:45:06;15.90;99.90
20288;DHT22;10303;51.960;8.372;2023-08-30T04:47:33;15.90;99.90
20288;DHT22;10303;51.960;8.372;2023-08-30T04:50:01;15.90;99.90
20288;DHT22;10303;51.960;8.372;2023-08-30T04:52:27;15.90;99.90
20288;DHT22;10303;51.960;8.372;2023-08-30T04:54:56;15.80;99.90
20288;DHT22;10303;51.960;8.372;2023-08-30T04:57:24;15.80;99.90
20288;DHT22;10303;51.960;8.372;2023-08-30T04:59:51;15.80;99.90
20288;DHT22;10303;51.960;8.372;2023-08-30T05:02:17;15.80;99.90
20288;DHT22;10303;51.960;8.372;2023-08-30T05:04:54;15.80;99.90
20288;DHT22;10303;51.960;8.372;2023-08-30T05:07:20;15.80;99.90
20288;DHT22;10303;51.960;8.372;2023-08-30T05:09:47;15.80;99.90
20288;DHT22;10303;51.960;8.372;2023-08-30T05:12:13;15.80;99.90
20288;DHT22;10303;51.960;8.372;2023-08-30T05:14:40;15.80;99.90
20288;DHT22;10303;51.960;8.372;2023-08-30T05:17:06;15.90;99.90
20288;DHT22;10303;51.960;8.372;2023-08-30T05:19:33;15.90;99.90
20288;DHT22;10303;51.960;8.372;2023-08-30T05:21:59;15.90;99.90
20288;DHT22;10303;51.960;8.372;2023-08-30T05:24:25;15.90;99.90
20288;DHT22;10303;51.960;8.372;2023-08-30T05:26:53;16.00;99.90
20288;DHT22;10303;51.960;8.372;2023-08-30T05:29:19;16.00;99.90
20288;DHT22;10303;51.960;8.372;2023-08-30T05:31:45;16.00;99.90
20288;DHT22;10303;51.960;8.372;2023-08-30T05:34:40;16.00;99.90
20288;DHT22;10303;51.960;8.372;2023-08-30T05:37:29;16.10;99.90
20288;DHT22;10303;51.960;8.372;2023-08-30T05:39:59;16.10;99.90
20288;DHT22;10303;51.960;8.372;2023-08-30T05:42:25;16.10;99.90
20288;DHT22;10303;51.960;8.372;2023-08-30T05:44:52;16.20;99.90
20288;DHT22;10303;51.960;8.372;2023-08-30T05:47:19;16.20;99.90
20288;DHT22;10303;51.960;8.372;2023-08-30T05:49:46;16.20;99.90
20288;DHT22;10303;51.960;8.372;2023-08-30T05:52:14;16.20;99.90
20288;DHT22;10303;51.960;8.372;2023-08-30T05:54:44;16.30;99.90
20288;DHT22;10303;51.960;8.372;2023-08-30T05:57:10;16.30;99.90
20288;DHT22;10303;51.960;8.372;2023-08-30T05:59:36;16.30;99.90
20288;DHT22;10303;51.960;8.372;2023-08-30T06:02:02;16.40;99.90
20288;DHT22;10303;51.960;8.372;2023-08-30T06:04:30;16.40;99.90
20288;DHT22;10303;51.960;8.372;2023-08-30T06:06:56;16.40;99.90
20288;DHT22;10303;51.960;8.372;2023-08-30T06:09:21;16.50;99.90
20288;DHT22;10303;51.960;8.372;2023-08-30T06:11:47;16.50;99.90
20288;DHT22;10303;51.960;8.372;2023-08-30T06:14:14;16.50;99.90
20288;DHT22;10303;51.960;8.372;2023-08-30T06:16:40;16.60;99.90
20288;DHT22;10303;51.960;8.372;2023-08-30T06:19:10;16.60;99.90
20288;DHT22;10303;51.960;8.372;2023-08-30T06:21:36;16.60;99.90
20288;DHT22;10303;51.960;8.372;2023-08-30T06:24:03;16.70;99.90
20288;DHT22;10303;51.960;8.372;2023-08-30T06:26:29;16.70;99.90
20288;DHT22;10303;51.960;8.372;2023-08-30T06:28:55;16.70;99.90
20288;DHT22;10303;51.960;8.372;2023-08-30T06:31:21;16.70;99.90
20288;DHT22;10303;51.960;8.372;2023-08-30T06:33:47;16.80;99.90
20288;DHT22;10303;51.960;8.372;2023-08-30T06:36:14;16.80;99.90
20288;DHT22;10303;51.960;8.372;2023-08-30T06:38:42;16.90;99.90
20288;DHT22;10303;51.960;8.372;2023-08-30T06:41:09;16.90;99.90
20288;DHT22;10303;51.960;8.372;2023-08-30T06:43:34;17.00;99.90
20288;DHT22;10303;51.960;8.372;2023-08-30T06:46:00;17.00;99.90
20288;DHT22;10303;51.960;8.372;2023-08-30T06:48:27;17.00;99.90
20288;DHT22;10303;51.960;8.372;2023-08-30T06:50:56;17.10;99.90
20288;DHT22;10303;51.960;8.372;2023-08-30T06:53:23;17.10;99.90
20288;DHT22;10303;51.960;8.372;2023-08-30T06:55:57;17.20;99.90
20288;DHT22;10303;51.960;8.372;2023-08-30T06:58:26;17.20;99.90
20288;DHT22;10303;51.960;8.372;2023-08-30T07:00:53;17.30;99.90
20288;DHT22;10303;51.960;8.372;2023-08-30T07:03:19;17.30;99.90
20288;DHT22;10303;51.960;8.372;2023-08-30T07:05:45;17.30;99.90
20288;DHT22;10303;51.960;8.372;2023-08-30T07:08:14;17.40;99.90
20288;DHT22;10303;51.960;8.372;2023-08-30T07:10:40;17.50;99.90
20288;DHT22;10303;51.960;8.372;2023-08-30T07:13:06;17.50;99.90
20288;DHT22;10303;51.960;8.372;2023-08-30T07:15:39;17.50;99.90
20288;DHT22;10303;51.960;8.372;2023-08-30T07:18:07;17.60;99.90
20288;DHT22;10303;51.960;8.372;2023-08-30T07:20:34;17.70;99.90
20288;DHT22;10303;51.960;8.372;2023-08-30T07:23:02;17.70;99.90
20288;DHT22;10303;51.960;8.372;2023-08-30T07:25:32;17.80;99.90
20288;DHT22;10303;51.960;8.372;2023-08-30T07:28:02;17.90;99.90
20288;DHT22;10303;51.960;8.372;2023-08-30T07:30:28;17.90;99.90
20288;DHT22;10303;51.960;8.372;2023-08-30T07:32:55;18.00;99.90
20288;DHT22;10303;51.960;8.372;2023-08-30T07:35:21;18.00;99.90
20288;DHT22;10303;51.960;8.372;2023-08-30T07:37:47;18.10;99.90
20288;DHT22;10303;51.960;8.372;2023-08-30T07:40:13;18.20;99.90
20288;DHT22;10303;51.960;8.372;2023-08-30T07:42:39;18.30;99.90
20288;DHT22;10303;51.960;8.372;2023-08-30T07:45:06;18.30;99.90
20288;DHT22;10303;51.960;8.372;2023-08-30T07:47:32;18.40;99.90
20288;DHT22;10303;51.960;8.372;2023-08-30T07:49:58;18.50;99.90
20288;DHT22;10303;51.960;8.372;2023-08-30T07:52:24;18.50;99.90
20288;DHT22;10303;51.960;8.372;2023-08-30T07:54:50;18.60;99.90
20288;DHT22;10303;51.960;8.372;2023-08-30T07:57:16;18.70;99.90
20288;DHT22;10303;51.960;8.372;2023-08-30T07:59:42;18.80;99.90
20288;DHT22;10303;51.960;8.372;2023-08-30T08:02:08;18.80;99.90
20288;DHT22;10303;51.960;8.372;2023-08-30T08:04:35;18.90;99.90
20288;DHT22;10303;51.960;8.372;2023-08-30T08:07:01;19.00;99.90
20288;DHT22;10303;51.960;8.372;2023-08-30T08:09:29;19.00;99.90
20288;DHT22;10303;51.960;8.372;2023-08-30T08:11:55;19.10;99.90
20288;DHT22;10303;51.960;8.372;2023-08-30T08:14:23;19.10;99.90
20288;DHT22;10303;51.960;8.372;2023-08-30T08:16:49;19.30;99.90
20288;DHT22;10303;51.960;8.372;2023-08-30T08:19:15;19.30;99.90
20288;DHT22;10303;51.960;8.372;2023-08-30T08:21:42;19.40;99.90
20288;DHT22;10303;51.960;8.372;2023-08-30T08:24:07;19.50;99.90
20288;DHT22;10303;51.960;8.372;2023-08-30T08:26:34;19.70;99.90
20288;DHT22;10303;51.960;8.372;2023-08-30T08:29:00;19.70;99.90
20288;DHT22;10303;51.960;8.372;2023-08-30T08:31:26;19.90;99.90
20288;DHT22;10303;51.960;8.372;2023-08-30T08:34:10;20.00;99.90
20288;DHT22;10303;51.960;8.372;2023-08-30T08:36:39;20.20;99.90
20288;DHT22;10303;51.960;8.372;2023-08-30T08:39:06;20.40;99.90
20288;DHT22;10303;51.960;8.372;2023-08-30T08:41:39;20.50;99.90
20288;DHT22;10303;51.960;8.372;2023-08-30T08:44:07;20.60;99.90
20288;DHT22;10303;51.960;8.372;2023-08-30T08:46:39;20.80;99.90
20288;DHT22;10303;51.960;8.372;2023-08-30T08:49:12;21.00;99.90
20288;DHT22;10303;51.960;8.372;2023-08-30T08:51:40;21.10;99.90
20288;DHT22;10303;51.960;8.372;2023-08-30T08:54:12;21.30;99.90
20288;DHT22;10303;51.960;8.372;2023-08-30T08:56:39;21.40;99.90
20288;DHT22;10303;51.960;8.372;2023-08-30T08:59:05;21.70;99.90
20288;DHT22;10303;51.960;8.372;2023-08-30T09:01:34;21.80;99.90
20288;DHT22;10303;51.960;8.372;2023-08-30T09:04:08;22.00;99.90
20288;DHT22;10303;51.960;8.372;2023-08-30T09:06:38;22.30;99.90
20288;DHT22;10303;51.960;8.372;2023-08-30T09:09:05;22.50;99.90
20288;DHT22;10303;51.960;8.372;2023-08-30T09:11:32;22.70;99.90
20288;DHT22;10303;51.960;8.372;2023-08-30T09:13:58;22.90;99.90
20288;DHT22;10303;51.960;8.372;2023-08-30T09:16:24;23.10;99.90
20288;DHT22;10303;51.960;8.372;2023-08-30T09:19:02;23.20;99.90
20288;DHT22;10303;51.960;8.372;2023-08-30T09:21:30;23.40;99.90
20288;DHT22;10303;51.960;8.372;2023-08-30T09:26:29;23.80;99.90
20288;DHT22;10303;51.960;8.372;2023-08-30T09:29:06;24.00;99.90
20288;DHT22;10303;51.960;8.372;2023-08-30T09:31:34;24.20;99.90
20288;DHT22;10303;51.960;8.372;2023-08-30T09:34:02;24.40;99.90
20288;DHT22;10303;51.960;8.372;2023-08-30T09:36:39;24.60;99.90
20288;DHT22;10303;51.960;8.372;2023-08-30T09:39:11;24.80;99.90
20288;DHT22;10303;51.960;8.372;2023-08-30T09:41:44;25.00;99.90
20288;DHT22;10303;51.960;8.372;2023-08-30T09:44:15;25.20;99.90
20288;DHT22;10303;51.960;8.372;2023-08-30T09:46:49;25.30;99.90
20288;DHT22;10303;51.960;8.372;2023-08-30T09:49:19;25.50;99.90
20288;DHT22;10303;51.960;8.372;2023-08-30T09:51:48;25.50;99.90
20288;DHT22;10303;51.960;8.372;2023-08-30T09:54:19;25.60;99.90
20288;DHT22;10303;51.960;8.372;2023-08-30T09:56:46;25.70;99.90
20288;DHT22;10303;51.960;8.372;2023-08-30T09:59:14;25.60;99.90
20288;DHT22;10303;51.960;8.372;2023-08-30T10:01:42;25.60;99.90
20288;DHT22;10303;51.960;8.372;2023-08-30T10:04:09;25.70;99.90
20288;DHT22;10303;51.960;8.372;2023-08-30T10:06:40;25.60;99.90
20288;DHT22;10303;51.960;8.372;2023-08-30T10:09:07;25.60;99.90
20288;DHT22;10303;51.960;8.372;2023-08-30T10:11:35;25.50;99.90
20288;DHT22;10303;51.960;8.372;2023-08-30T10:14:04;25.50;99.90
20288;DHT22;10303;51.960;8.372;2023-08-30T10:16:43;25.30;99.90
20288;DHT22;10303;51.960;8.372;2023-08-30T10:19:17;25.20;99.90
20288;DHT22;10303;51.960;8.372;2023-08-30T10:22:03;25.10;99.90
20288;DHT22;10303;51.960;8.372;2023-08-30T10:24:38;25.10;99.90
20288;DHT22;10303;51.960;8.372;2023-08-30T10:27:08;25.00;99.90
20288;DHT22;10303;51.960;8.372;2023-08-30T10:29:37;24.90;99.90
20288;DHT22;10303;51.960;8.372;2023-08-30T10:32:05;24.90;99.90
20288;DHT22;10303;51.960;8.372;2023-08-30T10:34:36;24.80;99.90
20288;DHT22;10303;51.960;8.372;2023-08-30T10:37:07;24.80;99.90
20288;DHT22;10303;51.960;8.372;2023-08-30T10:39:38;24.80;99.90
20288;DHT22;10303;51.960;8.372;2023-08-30T10:42:15;24.70;99.90
20288;DHT22;10303;51.960;8.372;2023-08-30T10:44:52;24.60;99.80
20288;DHT22;10303;51.960;8.372;2023-08-30T10:47:24;24.60;99.90
20288;DHT22;10303;51.960;8.372;2023-08-30T10:49:59;24.60;99.90
20288;DHT22;10303;51.960;8.372;2023-08-30T10:52:30;24.60;99.90
20288;DHT22;10303;51.960;8.372;2023-08-30T10:55:10;24.60;99.90
20288;DHT22;10303;51.960;8.372;2023-08-30T10:57:41;24.40;99.80
20288;DHT22;10303;51.960;8.372;2023-08-30T11:02:51;24.30;99.90
20288;DHT22;10303;51.960;8.372;2023-08-30T11:05:22;24.30;99.80
20288;DHT22;10303;51.960;8.372;2023-08-30T11:07:53;24.20;99.90
20288;DHT22;10303;51.960;8.372;2023-08-30T11:10:20;24.20;99.90
20288;DHT22;10303;51.960;8.372;2023-08-30T11:12:48;24.20;99.90
20288;DHT22;10303;51.960;8.372;2023-08-30T11:15:15;24.10;99.80
20288;DHT22;10303;51.960;8.372;2023-08-30T11:17:42;24.00;98.20
20288;DHT22;10303;51.960;8.372;2023-08-30T11:20:10;24.00;99.40
20288;DHT22;10303;51.960;8.372;2023-08-30T11:22:42;24.00;99.60
20288;DHT22;10303;51.960;8.372;2023-08-30T11:25:11;23.90;97.50
20288;DHT22;10303;51.960;8.372;2023-08-30T11:27:39;23.90;99.20
20288;DHT22;10303;51.960;8.372;2023-08-30T11:30:06;23.90;99.80
20288;DHT22;10303;51.960;8.372;2023-08-30T11:32:38;23.90;99.90
20288;DHT22;10303;51.960;8.372;2023-08-30T11:35:06;23.90;99.90
20288;DHT22;10303;51.960;8.372;2023-08-30T11:37:32;24.00;99.90
20288;DHT22;10303;51.960;8.372;2023-08-30T11:39:59;24.00;99.30
20288;DHT22;10303;51.960;8.372;2023-08-30T11:42:27;24.00;99.40
20288;DHT22;10303;51.960;8.372;2023-08-30T11:44:53;24.00;99.20
20288;DHT22;10303;51.960;8.372;2023-08-30T11:47:23;24.10;99.20
20288;DHT22;10303;51.960;8.372;2023-08-30T11:49:52;24.10;99.20
20288;DHT22;10303;51.960;8.372;2023-08-30T11:52:20;24.10;99.40
20288;DHT22;10303;51.960;8.372;2023-08-30T11:54:49;24.10;98.90
20288;DHT22;10303;51.960;8.372;2023-08-30T11:57:16;24.10;98.80
20288;DHT22;10303;51.960;8.372;2023-08-30T11:59:42;24.10;97.30
20288;DHT22;10303;51.960;8.372;2023-08-30T12:02:09;24.10;97.80
20288;DHT22;10303;51.960;8.372;2023-08-30T12:04:44;24.00;97.30
20288;DHT22;10303;51.960;8.372;2023-08-30T12:07:25;24.00;97.90
20288;DHT22;10303;51.960;8.372;2023-08-30T12:09:51;24.00;98.00
20288;DHT22;10303;51.960;8.372;2023-08-30T12:12:19;24.00;97.80
20288;DHT22;10303;51.960;8.372;2023-08-30T12:14:55;24.00;98.10
20288;DHT22;10303;51.960;8.372;2023-08-30T12:17:21;23.90;97.80
20288;DHT22;10303;51.960;8.372;2023-08-30T12:19:55;23.90;98.60
20288;DHT22;10303;51.960;8.372;2023-08-30T12:22:22;23.90;97.90
20288;DHT22;10303;51.960;8.372;2023-08-30T12:24:48;23.80;98.00
20288;DHT22;10303;51.960;8.372;2023-08-30T12:27:14;23.80;97.80
20288;DHT22;10303;51.960;8.372;2023-08-30T12:29:41;23.70;96.80
20288;DHT22;10303;51.960;8.372;2023-08-30T12:32:07;23.60;97.50
20288;DHT22;10303;51.960;8.372;2023-08-30T12:34:34;23.60;97.80
20288;DHT22;10303;51.960;8.372;2023-08-30T12:37:01;23.50;97.90
20288;DHT22;10303;51.960;8.372;2023-08-30T12:39:28;23.40;98.10
20288;DHT22;10303;51.960;8.372;2023-08-30T12:41:54;23.30;99.20
20288;DHT22;10303;51.960;8.372;2023-08-30T12:44:21;23.00;99.60
20288;DHT22;10303;51.960;8.372;2023-08-30T12:46:47;23.00;99.80
20288;DHT22;10303;51.960;8.372;2023-08-30T12:49:13;22.80;99.90
20288;DHT22;10303;51.960;8.372;2023-08-30T12:51:39;22.60;99.90
20288;DHT22;10303;51.960;8.372;2023-08-30T12:54:05;22.50;99.90
20288;DHT22;10303;51.960;8.372;2023-08-30T12:56:31;22.30;99.90
20288;DHT22;10303;51.960;8.372;2023-08-30T12:58:57;22.20;99.90
20288;DHT22;10303;51.960;8.372;2023-08-30T13:01:22;22.10;99.90
20288;DHT22;10303;51.960;8.372;2023-08-30T13:03:50;21.80;99.90
20288;DHT22;10303;51.960;8.372;2023-08-30T13:06:16;21.70;99.90
20288;DHT22;10303;51.960;8.372;2023-08-30T13:08:41;21.50;99.90
20288;DHT22;10303;51.960;8.372;2023-08-30T13:11:07;21.40;99.90
20288;DHT22;10303;51.960;8.372;2023-08-30T13:13:33;21.40;99.90
20288;DHT22;10303;51.960;8.372;2023-08-30T13:15:59;21.30;99.90
20288;DHT22;10303;51.960;8.372;2023-08-30T13:18:25;21.20;99.90
20288;DHT22;10303;51.960;8.372;2023-08-30T13:20:54;21.10;99.90
20288;DHT22;10303;51.960;8.372;2023-08-30T13:23:21;21.00;99.90
20288;DHT22;10303;51.960;8.372;2023-08-30T13:25:47;20.80;99.90
20288;DHT22;10303;51.960;8.372;2023-08-30T13:28:14;20.70;99.90
20288;DHT22;10303;51.960;8.372;2023-08-30T13:30:47;20.70;99.90
20288;DHT22;10303;51.960;8.372;2023-08-30T13:33:15;20.70;99.90
20288;DHT22;10303;51.960;8.372;2023-08-30T13:35:41;20.60;99.90
20288;DHT22;10303;51.960;8.372;2023-08-30T13:38:07;20.50;99.90
20288;DHT22;10303;51.960;8.372;2023-08-30T13:40:33;20.50;99.90
20288;DHT22;10303;51.960;8.372;2023-08-30T13:42:59;20.30;99.90
20288;DHT22;10303;51.960;8.372;2023-08-30T13:45:25;20.20;99.90
20288;DHT22;10303;51.960;8.372;2023-08-30T13:47:50;20.10;99.90
20288;DHT22;10303;51.960;8.372;2023-08-30T13:50:18;20.10;99.90
20288;DHT22;10303;51.960;8.372;2023-08-30T13:52:44;20.10;99.90
20288;DHT22;10303;51.960;8.372;2023-08-30T13:55:10;20.00;99.90
20288;DHT22;10303;51.960;8.372;2023-08-30T13:57:36;20.00;99.90
20288;DHT22;10303;51.960;8.372;2023-08-30T14:00:03;20.00;99.90
20288;DHT22;10303;51.960;8.372;2023-08-30T14:02:35;19.90;99.90
20288;DHT22;10303;51.960;8.372;2023-08-30T14:05:02;19.90;99.90
20288;DHT22;10303;51.960;8.372;2023-08-30T14:07:28;20.00;99.90
20288;DHT22;10303;51.960;8.372;2023-08-30T14:09:54;19.90;99.90
20288;DHT22;10303;51.960;8.372;2023-08-30T14:12:20;19.90;99.90
20288;DHT22;10303;51.960;8.372;2023-08-30T14:14:46;19.90;99.90
20288;DHT22;10303;51.960;8.372;2023-08-30T14:17:12;19.90;99.90
20288;DHT22;10303;51.960;8.372;2023-08-30T14:19:38;19.90;99.90
20288;DHT22;10303;51.960;8.372;2023-08-30T14:22:04;19.90;99.90
20288;DHT22;10303;51.960;8.372;2023-08-30T14:24:34;19.90;99.90
20288;DHT22;10303;51.960;8.372;2023-08-30T14:27:00;19.90;99.90
20288;DHT22;10303;51.960;8.372;2023-08-30T14:29:26;19.90;99.90
20288;DHT22;10303;51.960;8.372;2023-08-30T14:31:52;19.90;99.90
20288;DHT22;10303;51.960;8.372;2023-08-30T14:34:20;19.90;99.90
20288;DHT22;10303;51.960;8.372;2023-08-30T14:36:46;20.00;99.90
20288;DHT22;10303;51.960;8.372;2023-08-30T14:39:14;20.00;99.90
20288;DHT22;10303;51.960;8.372;2023-08-30T14:41:40;20.00;99.90
20288;DHT22;10303;51.960;8.372;2023-08-30T14:44:07;20.00;99.90
20288;DHT22;10303;51.960;8.372;2023-08-30T14:46:34;20.00;99.90
20288;DHT22;10303;51.960;8.372;2023-08-30T14:49:00;20.00;99.90
20288;DHT22;10303;51.960;8.372;2023-08-30T14:51:26;20.00;99.90
20288;DHT22;10303;51.960;8.372;2023-08-30T14:53:52;20.00;99.90
20288;DHT22;10303;51.960;8.372;2023-08-30T14:56:18;20.00;99.90
20288;DHT22;10303;51.960;8.372;2023-08-30T14:58:44;20.00;99.90
20288;DHT22;10303;51.960;8.372;2023-08-30T15:01:15;20.10;99.90
20288;DHT22;10303;51.960;8.372;2023-08-30T15:03:41;20.00;99.90
20288;DHT22;10303;51.960;8.372;2023-08-30T15:06:08;20.00;99.90
20288;DHT22;10303;51.960;8.372;2023-08-30T15:08:34;20.00;99.90
20288;DHT22;10303;51.960;8.372;2023-08-30T15:11:00;20.00;99.90
20288;DHT22;10303;51.960;8.372;2023-08-30T15:13:28;20.10;99.90
20288;DHT22;10303;51.960;8.372;2023-08-30T15:15:54;20.00;99.90
20288;DHT22;10303;51.960;8.372;2023-08-30T15:18:20;20.00;99.90
20288;DHT22;10303;51.960;8.372;2023-08-30T15:20:46;20.00;99.90
20288;DHT22;10303;51.960;8.372;2023-08-30T15:23:13;20.00;99.90
20288;DHT22;10303;51.960;8.372;2023-08-30T15:25:44;20.00;99.90
20288;DHT22;10303;51.960;8.372;2023-08-30T15:28:14;20.00;99.90
20288;DHT22;10303;51.960;8.372;2023-08-30T15:30:42;20.00;99.90
20288;DHT22;10303;51.960;8.372;2023-08-30T15:33:09;20.00;99.90
20288;DHT22;10303;51.960;8.372;2023-08-30T15:35:41;20.00;99.90
20288;DHT22;10303;51.960;8.372;2023-08-30T15:38:08;20.10;99.90
20288;DHT22;10303;51.960;8.372;2023-08-30T15:40:34;20.10;99.90
20288;DHT22;10303;51.960;8.372;2023-08-30T15:43:01;20.00;99.90
20288;DHT22;10303;51.960;8.372;2023-08-30T15:45:29;20.00;99.90